sensor_id;sensor_type;location;lat;lon;timestamp;P1;durP1;ratioP1;P2;durP2;ratioP2
23690;SDS011;43867;50.836;4.364;2022-08-19T00:02:25;10.57;;;6.32;;
23690;SDS011;43867;50.836;4.364;2022-08-19T00:04:50;10.57;;;6.82;;
23690;SDS011;43867;50.836;4.364;2022-08-19T00:07:20;12.20;;;6.90;;
23690;SDS011;43867;50.836;4.364;2022-08-19T00:09:46;12.40;;;7.18;;
23690;SDS011;43867;50.836;4.364;2022-08-19T00:12:12;13.45;;;7.53;;
23690;SDS011;43867;50.836;4.364;2022-08-19T00:14:38;14.18;;;8.00;;
23690;SDS011;43867;50.836;4.364;2022-08-19T00:17:04;13.45;;;7.03;;
23690;SDS011;43867;50.836;4.364;2022-08-19T00:19:31;17.02;;;7.95;;
23690;SDS011;43867;50.836;4.364;2022-08-19T00:21:57;15.13;;;8.55;;
23690;SDS011;43867;50.836;4.364;2022-08-19T00:24:24;12.30;;;7.35;;
23690;SDS011;43867;50.836;4.364;2022-08-19T00:26:50;15.82;;;8.55;;
23690;SDS011;43867;50.836;4.364;2022-08-19T00:29:17;19.02;;;9.40;;
23690;SDS011;43867;50.836;4.364;2022-08-19T00:31:45;19.23;;;10.35;;
23690;SDS011;43867;50.836;4.364;2022-08-19T00:34:12;18.92;;;9.98;;
23690;SDS011;43867;50.836;4.364;2022-08-19T00:36:39;19.98;;;10.27;;
23690;SDS011;43867;50.836;4.364;2022-08-19T00:39:06;22.77;;;10.55;;
23690;SDS011;43867;50.836;4.364;2022-08-19T00:41:32;21.45;;;10.57;;
23690;SDS011;43867;50.836;4.364;2022-08-19T00:44:09;23.27;;;10.68;;
23690;SDS011;43867;50.836;4.364;2022-08-19T00:46:36;21.67;;;9.95;;
23690;SDS011;43867;50.836;4.364;2022-08-19T00:49:06;23.45;;;11.45;;
23690;SDS011;43867;50.836;4.364;2022-08-19T00:51:39;21.15;;;11.13;;
23690;SDS011;43867;50.836;4.364;2022-08-19T00:54:07;24.05;;;11.07;;
23690;SDS011;43867;50.836;4.364;2022-08-19T00:56:34;22.60;;;10.60;;
23690;SDS011;43867;50.836;4.364;2022-08-19T00:59:00;24.48;;;11.35;;
23690;SDS011;43867;50.836;4.364;2022-08-19T01:01:33;23.48;;;11.60;;
23690;SDS011;43867;50.836;4.364;2022-08-19T01:03:59;20.23;;;11.73;;
23690;SDS011;43867;50.836;4.364;2022-08-19T01:06:25;20.13;;;10.15;;
23690;SDS011;43867;50.836;4.364;2022-08-19T01:08:51;17.98;;;10.25;;
23690;SDS011;43867;50.836;4.364;2022-08-19T01:11:17;23.63;;;10.50;;
23690;SDS011;43867;50.836;4.364;2022-08-19T01:13:43;19.88;;;10.18;;
23690;SDS011;43867;50.836;4.364;2022-08-19T01:16:10;20.17;;;10.27;;
23690;SDS011;43867;50.836;4.364;2022-08-19T01:18:38;18.95;;;9.65;;
23690;SDS011;43867;50.836;4.364;2022-08-19T01:21:30;20.48;;;10.82;;
23690;SDS011;43867;50.836;4.364;2022-08-19T01:23:58;17.98;;;9.52;;
23690;SDS011;43867;50.836;4.364;2022-08-19T01:26:24;19.70;;;10.15;;
23690;SDS011;43867;50.836;4.364;2022-08-19T01:28:51;16.98;;;9.70;;
23690;SDS011;43867;50.836;4.364;2022-08-19T01:31:21;20.10;;;9.88;;
23690;SDS011;43867;50.836;4.364;2022-08-19T01:33:49;20.90;;;9.52;;
23690;SDS011;43867;50.836;4.364;2022-08-19T01:36:24;15.43;;;9.02;;
23690;SDS011;43867;50.836;4.364;2022-08-19T01:39:03;17.15;;;8.98;;
23690;SDS011;43867;50.836;4.364;2022-08-19T01:41:32;17.73;;;9.50;;
23690;SDS011;43867;50.836;4.364;2022-08-19T01:43:58;16.98;;;8.88;;
23690;SDS011;43867;50.836;4.364;2022-08-19T01:46:26;17.38;;;9.27;;
23690;SDS011;43867;50.836;4.364;2022-08-19T01:48:51;16.05;;;7.88;;
23690;SDS011;43867;50.836;4.364;2022-08-19T01:51:17;13.43;;;7.60;;
23690;SDS011;43867;50.836;4.364;2022-08-19T01:53:45;12.95;;;7.60;;
23690;SDS011;43867;50.836;4.364;2022-08-19T01:56:12;15.05;;;8.05;;
23690;SDS011;43867;50.836;4.364;2022-08-19T01:58:40;13.35;;;7.45;;
23690;SDS011;43867;50.836;4.364;2022-08-19T02:01:11;15.07;;;8.05;;
23690;SDS011;43867;50.836;4.364;2022-08-19T02:03:38;15.15;;;7.75;;
23690;SDS011;43867;50.836;4.364;2022-08-19T02:06:04;14.55;;;7.88;;
23690;SDS011;43867;50.836;4.364;2022-08-19T02:08:32;14.18;;;7.13;;
23690;SDS011;43867;50.836;4.364;2022-08-19T02:10:59;14.27;;;7.03;;
23690;SDS011;43867;50.836;4.364;2022-08-19T02:13:25;11.60;;;6.70;;
23690;SDS011;43867;50.836;4.364;2022-08-19T02:15:51;10.90;;;6.55;;
23690;SDS011;43867;50.836;4.364;2022-08-19T02:18:16;10.43;;;5.82;;
23690;SDS011;43867;50.836;4.364;2022-08-19T02:20:43;11.63;;;6.93;;
23690;SDS011;43867;50.836;4.364;2022-08-19T02:23:10;15.05;;;7.18;;
23690;SDS011;43867;50.836;4.364;2022-08-19T02:25:36;13.20;;;6.85;;
23690;SDS011;43867;50.836;4.364;2022-08-19T02:28:03;13.75;;;7.50;;
23690;SDS011;43867;50.836;4.364;2022-08-19T02:30:29;14.88;;;7.75;;
23690;SDS011;43867;50.836;4.364;2022-08-19T02:32:55;14.60;;;7.70;;
23690;SDS011;43867;50.836;4.364;2022-08-19T02:35:21;17.15;;;8.35;;
23690;SDS011;43867;50.836;4.364;2022-08-19T02:37:47;12.10;;;6.60;;
23690;SDS011;43867;50.836;4.364;2022-08-19T02:40:32;13.77;;;7.10;;
23690;SDS011;43867;50.836;4.364;2022-08-19T02:42:59;12.60;;;7.10;;
23690;SDS011;43867;50.836;4.364;2022-08-19T02:45:25;11.80;;;6.78;;
23690;SDS011;43867;50.836;4.364;2022-08-19T02:47:51;13.25;;;7.43;;
23690;SDS011;43867;50.836;4.364;2022-08-19T02:50:17;11.65;;;6.97;;
23690;SDS011;43867;50.836;4.364;2022-08-19T02:52:43;16.17;;;7.88;;
23690;SDS011;43867;50.836;4.364;2022-08-19T02:55:10;15.35;;;7.28;;
23690;SDS011;43867;50.836;4.364;2022-08-19T02:57:35;12.77;;;6.97;;
23690;SDS011;43867;50.836;4.364;2022-08-19T03:00:03;11.02;;;6.15;;
23690;SDS011;43867;50.836;4.364;2022-08-19T03:02:30;10.25;;;5.72;;
23690;SDS011;43867;50.836;4.364;2022-08-19T03:04:56;12.73;;;7.00;;
23690;SDS011;43867;50.836;4.364;2022-08-19T03:07:22;12.43;;;6.00;;
23690;SDS011;43867;50.836;4.364;2022-08-19T03:09:47;12.93;;;6.25;;
23690;SDS011;43867;50.836;4.364;2022-08-19T03:12:13;10.95;;;6.22;;
23690;SDS011;43867;50.836;4.364;2022-08-19T03:14:38;9.90;;;5.88;;
23690;SDS011;43867;50.836;4.364;2022-08-19T03:17:04;10.05;;;6.10;;
23690;SDS011;43867;50.836;4.364;2022-08-19T03:19:30;11.68;;;6.18;;
23690;SDS011;43867;50.836;4.364;2022-08-19T03:21:57;12.63;;;6.13;;
23690;SDS011;43867;50.836;4.364;2022-08-19T03:24:23;16.52;;;7.07;;
23690;SDS011;43867;50.836;4.364;2022-08-19T03:26:53;12.90;;;6.68;;
23690;SDS011;43867;50.836;4.364;2022-08-19T03:29:24;12.35;;;6.93;;
23690;SDS011;43867;50.836;4.364;2022-08-19T03:31:51;11.60;;;6.47;;
23690;SDS011;43867;50.836;4.364;2022-08-19T03:34:19;11.30;;;6.50;;
23690;SDS011;43867;50.836;4.364;2022-08-19T03:36:53;10.43;;;6.28;;
23690;SDS011;43867;50.836;4.364;2022-08-19T03:39:20;10.77;;;6.15;;
23690;SDS011;43867;50.836;4.364;2022-08-19T03:41:48;10.25;;;5.80;;
23690;SDS011;43867;50.836;4.364;2022-08-19T03:44:16;12.88;;;6.47;;
23690;SDS011;43867;50.836;4.364;2022-08-19T03:46:45;10.38;;;5.95;;
23690;SDS011;43867;50.836;4.364;2022-08-19T03:49:12;13.40;;;7.05;;
23690;SDS011;43867;50.836;4.364;2022-08-19T03:51:38;14.50;;;6.65;;
23690;SDS011;43867;50.836;4.364;2022-08-19T03:54:05;11.77;;;6.20;;
23690;SDS011;43867;50.836;4.364;2022-08-19T03:56:34;10.38;;;5.88;;
23690;SDS011;43867;50.836;4.364;2022-08-19T03:59:02;11.50;;;5.65;;
23690;SDS011;43867;50.836;4.364;2022-08-19T04:01:29;11.63;;;6.13;;
23690;SDS011;43867;50.836;4.364;2022-08-19T04:03:55;12.55;;;6.55;;
23690;SDS011;43867;50.836;4.364;2022-08-19T04:06:29;12.52;;;5.78;;
23690;SDS011;43867;50.836;4.364;2022-08-19T04:08:58;11.30;;;5.75;;
23690;SDS011;43867;50.836;4.364;2022-08-19T04:11:27;13.25;;;5.82;;
23690;SDS011;43867;50.836;4.364;2022-08-19T04:13:55;12.20;;;6.38;;
23690;SDS011;43867;50.836;4.364;2022-08-19T04:16:24;12.27;;;6.20;;
23690;SDS011;43867;50.836;4.364;2022-08-19T04:18:53;12.13;;;6.72;;
23690;SDS011;43867;50.836;4.364;2022-08-19T04:21:21;14.35;;;7.35;;
23690;SDS011;43867;50.836;4.364;2022-08-19T04:23:49;10.93;;;5.72;;
23690;SDS011;43867;50.836;4.364;2022-08-19T04:26:20;9.63;;;5.25;;
23690;SDS011;43867;50.836;4.364;2022-08-19T04:28:48;11.35;;;5.78;;
23690;SDS011;43867;50.836;4.364;2022-08-19T04:31:19;12.63;;;6.18;;
23690;SDS011;43867;50.836;4.364;2022-08-19T04:33:52;11.45;;;5.55;;
23690;SDS011;43867;50.836;4.364;2022-08-19T04:36:20;12.68;;;5.55;;
23690;SDS011;43867;50.836;4.364;2022-08-19T04:38:48;13.57;;;6.05;;
23690;SDS011;43867;50.836;4.364;2022-08-19T04:41:14;11.02;;;5.38;;
23690;SDS011;43867;50.836;4.364;2022-08-19T04:43:59;8.98;;;5.05;;
23690;SDS011;43867;50.836;4.364;2022-08-19T04:46:25;11.98;;;6.07;;
23690;SDS011;43867;50.836;4.364;2022-08-19T04:48:51;11.13;;;4.90;;
23690;SDS011;43867;50.836;4.364;2022-08-19T04:51:18;9.73;;;5.30;;
23690;SDS011;43867;50.836;4.364;2022-08-19T04:53:45;8.80;;;5.18;;
23690;SDS011;43867;50.836;4.364;2022-08-19T04:56:12;10.13;;;4.57;;
23690;SDS011;43867;50.836;4.364;2022-08-19T04:58:41;7.18;;;4.32;;
23690;SDS011;43867;50.836;4.364;2022-08-19T05:01:09;8.48;;;5.05;;
23690;SDS011;43867;50.836;4.364;2022-08-19T05:03:37;8.48;;;4.88;;
23690;SDS011;43867;50.836;4.364;2022-08-19T05:06:08;8.75;;;4.65;;
23690;SDS011;43867;50.836;4.364;2022-08-19T05:08:37;7.47;;;4.45;;
23690;SDS011;43867;50.836;4.364;2022-08-19T05:11:25;8.77;;;5.43;;
23690;SDS011;43867;50.836;4.364;2022-08-19T05:13:53;6.65;;;4.22;;
23690;SDS011;43867;50.836;4.364;2022-08-19T05:16:20;9.93;;;4.22;;
23690;SDS011;43867;50.836;4.364;2022-08-19T05:18:47;6.63;;;4.03;;
23690;SDS011;43867;50.836;4.364;2022-08-19T05:21:32;6.93;;;4.22;;
23690;SDS011;43867;50.836;4.364;2022-08-19T05:24:18;9.90;;;4.13;;
23690;SDS011;43867;50.836;4.364;2022-08-19T05:26:47;6.60;;;3.95;;
23690;SDS011;43867;50.836;4.364;2022-08-19T05:29:15;10.32;;;4.10;;
23690;SDS011;43867;50.836;4.364;2022-08-19T05:31:42;10.35;;;4.75;;
23690;SDS011;43867;50.836;4.364;2022-08-19T05:34:09;8.65;;;4.53;;
23690;SDS011;43867;50.836;4.364;2022-08-19T05:36:42;7.13;;;4.65;;
23690;SDS011;43867;50.836;4.364;2022-08-19T05:39:10;9.63;;;4.97;;
23690;SDS011;43867;50.836;4.364;2022-08-19T05:41:45;9.70;;;4.97;;
23690;SDS011;43867;50.836;4.364;2022-08-19T05:44:12;10.88;;;5.38;;
23690;SDS011;43867;50.836;4.364;2022-08-19T05:46:39;11.27;;;5.30;;
23690;SDS011;43867;50.836;4.364;2022-08-19T05:49:07;10.13;;;5.55;;
23690;SDS011;43867;50.836;4.364;2022-08-19T05:51:34;8.05;;;4.55;;
23690;SDS011;43867;50.836;4.364;2022-08-19T05:54:02;10.13;;;5.20;;
23690;SDS011;43867;50.836;4.364;2022-08-19T05:56:29;8.35;;;4.60;;
23690;SDS011;43867;50.836;4.364;2022-08-19T05:58:56;7.68;;;4.55;;
23690;SDS011;43867;50.836;4.364;2022-08-19T06:01:23;8.75;;;4.18;;
23690;SDS011;43867;50.836;4.364;2022-08-19T06:03:50;8.68;;;4.40;;
23690;SDS011;43867;50.836;4.364;2022-08-19T06:06:16;7.03;;;3.78;;
23690;SDS011;43867;50.836;4.364;2022-08-19T06:08:42;6.70;;;3.95;;
23690;SDS011;43867;50.836;4.364;2022-08-19T06:13:48;5.90;;;2.95;;
23690;SDS011;43867;50.836;4.364;2022-08-19T06:16:21;5.60;;;2.90;;
23690;SDS011;43867;50.836;4.364;2022-08-19T06:18:48;5.07;;;3.53;;
23690;SDS011;43867;50.836;4.364;2022-08-19T06:21:18;4.25;;;2.92;;
23690;SDS011;43867;50.836;4.364;2022-08-19T06:23:49;6.28;;;3.15;;
23690;SDS011;43867;50.836;4.364;2022-08-19T06:26:15;5.53;;;2.90;;
23690;SDS011;43867;50.836;4.364;2022-08-19T06:28:42;4.38;;;2.83;;
23690;SDS011;43867;50.836;4.364;2022-08-19T06:31:15;4.07;;;2.55;;
23690;SDS011;43867;50.836;4.364;2022-08-19T06:33:44;5.65;;;3.72;;
23690;SDS011;43867;50.836;4.364;2022-08-19T06:39:10;3.72;;;2.20;;
23690;SDS011;43867;50.836;4.364;2022-08-19T06:41:43;4.18;;;2.53;;
23690;SDS011;43867;50.836;4.364;2022-08-19T06:44:11;4.13;;;3.00;;
23690;SDS011;43867;50.836;4.364;2022-08-19T06:46:38;4.35;;;2.70;;
23690;SDS011;43867;50.836;4.364;2022-08-19T06:49:05;8.35;;;3.10;;
23690;SDS011;43867;50.836;4.364;2022-08-19T06:51:33;5.25;;;2.90;;
23690;SDS011;43867;50.836;4.364;2022-08-19T06:53:59;4.00;;;2.72;;
23690;SDS011;43867;50.836;4.364;2022-08-19T06:56:27;7.68;;;2.78;;
23690;SDS011;43867;50.836;4.364;2022-08-19T06:58:57;5.15;;;2.67;;
23690;SDS011;43867;50.836;4.364;2022-08-19T07:01:22;3.28;;;2.25;;
23690;SDS011;43867;50.836;4.364;2022-08-19T07:03:48;4.18;;;2.83;;
23690;SDS011;43867;50.836;4.364;2022-08-19T07:06:15;5.00;;;3.10;;
23690;SDS011;43867;50.836;4.364;2022-08-19T07:08:43;4.97;;;3.22;;
23690;SDS011;43867;50.836;4.364;2022-08-19T07:11:11;5.35;;;3.33;;
23690;SDS011;43867;50.836;4.364;2022-08-19T07:13:38;4.18;;;2.50;;
23690;SDS011;43867;50.836;4.364;2022-08-19T07:16:05;5.82;;;2.80;;
23690;SDS011;43867;50.836;4.364;2022-08-19T07:18:32;5.13;;;3.42;;
23690;SDS011;43867;50.836;4.364;2022-08-19T07:21:17;5.28;;;3.20;;
23690;SDS011;43867;50.836;4.364;2022-08-19T07:23:49;5.70;;;3.03;;
23690;SDS011;43867;50.836;4.364;2022-08-19T07:28:46;6.85;;;3.00;;
23690;SDS011;43867;50.836;4.364;2022-08-19T07:31:15;4.13;;;3.33;;
23690;SDS011;43867;50.836;4.364;2022-08-19T07:33:43;4.20;;;2.45;;
23690;SDS011;43867;50.836;4.364;2022-08-19T07:36:11;4.15;;;2.72;;
23690;SDS011;43867;50.836;4.364;2022-08-19T07:38:38;3.83;;;2.67;;
23690;SDS011;43867;50.836;4.364;2022-08-19T07:41:06;4.47;;;2.53;;
23690;SDS011;43867;50.836;4.364;2022-08-19T07:43:35;4.05;;;2.63;;
23690;SDS011;43867;50.836;4.364;2022-08-19T07:46:01;2.85;;;1.90;;
23690;SDS011;43867;50.836;4.364;2022-08-19T07:48:27;3.78;;;2.28;;
23690;SDS011;43867;50.836;4.364;2022-08-19T07:50:57;4.72;;;2.13;;
23690;SDS011;43867;50.836;4.364;2022-08-19T07:53:27;3.53;;;2.20;;
23690;SDS011;43867;50.836;4.364;2022-08-19T07:55:55;8.13;;;3.35;;
23690;SDS011;43867;50.836;4.364;2022-08-19T07:58:23;4.30;;;2.60;;
23690;SDS011;43867;50.836;4.364;2022-08-19T08:00:50;3.88;;;2.60;;
23690;SDS011;43867;50.836;4.364;2022-08-19T08:03:18;3.00;;;2.70;;
23690;SDS011;43867;50.836;4.364;2022-08-19T08:06:05;4.07;;;2.45;;
23690;SDS011;43867;50.836;4.364;2022-08-19T08:08:50;6.40;;;2.80;;
23690;SDS011;43867;50.836;4.364;2022-08-19T08:11:34;2.70;;;1.92;;
23690;SDS011;43867;50.836;4.364;2022-08-19T08:14:00;2.97;;;1.88;;
23690;SDS011;43867;50.836;4.364;2022-08-19T08:16:26;3.65;;;2.70;;
23690;SDS011;43867;50.836;4.364;2022-08-19T08:18:56;3.45;;;2.20;;
23690;SDS011;43867;50.836;4.364;2022-08-19T08:21:22;2.67;;;2.03;;
23690;SDS011;43867;50.836;4.364;2022-08-19T08:23:48;3.72;;;2.17;;
23690;SDS011;43867;50.836;4.364;2022-08-19T08:26:13;3.22;;;2.15;;
23690;SDS011;43867;50.836;4.364;2022-08-19T08:28:40;2.67;;;1.95;;
23690;SDS011;43867;50.836;4.364;2022-08-19T08:31:05;3.95;;;2.33;;
23690;SDS011;43867;50.836;4.364;2022-08-19T08:33:31;4.25;;;2.25;;
23690;SDS011;43867;50.836;4.364;2022-08-19T08:35:57;12.85;;;2.88;;
23690;SDS011;43867;50.836;4.364;2022-08-19T08:38:22;3.63;;;2.38;;
23690;SDS011;43867;50.836;4.364;2022-08-19T08:40:49;5.10;;;1.75;;
23690;SDS011;43867;50.836;4.364;2022-08-19T08:43:22;4.10;;;2.58;;
23690;SDS011;43867;50.836;4.364;2022-08-19T08:46:03;3.53;;;2.28;;
23690;SDS011;43867;50.836;4.364;2022-08-19T08:48:37;4.13;;;2.15;;
23690;SDS011;43867;50.836;4.364;2022-08-19T08:51:14;3.63;;;2.10;;
23690;SDS011;43867;50.836;4.364;2022-08-19T08:53:46;4.03;;;2.35;;
23690;SDS011;43867;50.836;4.364;2022-08-19T08:56:15;3.30;;;2.20;;
23690;SDS011;43867;50.836;4.364;2022-08-19T08:58:49;2.92;;;1.85;;
23690;SDS011;43867;50.836;4.364;2022-08-19T09:01:22;2.33;;;2.10;;
23690;SDS011;43867;50.836;4.364;2022-08-19T09:03:48;3.40;;;1.83;;
23690;SDS011;43867;50.836;4.364;2022-08-19T09:06:22;2.05;;;1.60;;
23690;SDS011;43867;50.836;4.364;2022-08-19T09:09:17;1.37;;;1.20;;
23690;SDS011;43867;50.836;4.364;2022-08-19T09:14:47;4.03;;;2.10;;
23690;SDS011;43867;50.836;4.364;2022-08-19T09:17:16;3.03;;;2.05;;
23690;SDS011;43867;50.836;4.364;2022-08-19T09:19:53;2.97;;;1.63;;
23690;SDS011;43867;50.836;4.364;2022-08-19T09:22:23;1.98;;;1.58;;
23690;SDS011;43867;50.836;4.364;2022-08-19T09:24:49;3.55;;;1.75;;
23690;SDS011;43867;50.836;4.364;2022-08-19T09:27:17;2.20;;;1.80;;
23690;SDS011;43867;50.836;4.364;2022-08-19T09:29:43;2.83;;;1.83;;
23690;SDS011;43867;50.836;4.364;2022-08-19T09:32:09;2.38;;;1.55;;
23690;SDS011;43867;50.836;4.364;2022-08-19T09:34:35;4.22;;;1.92;;
23690;SDS011;43867;50.836;4.364;2022-08-19T09:37:01;2.75;;;1.63;;
23690;SDS011;43867;50.836;4.364;2022-08-19T09:39:28;3.25;;;2.10;;
23690;SDS011;43867;50.836;4.364;2022-08-19T09:41:56;1.70;;;1.38;;
23690;SDS011;43867;50.836;4.364;2022-08-19T09:44:21;3.70;;;1.60;;
23690;SDS011;43867;50.836;4.364;2022-08-19T09:46:48;3.28;;;1.88;;
23690;SDS011;43867;50.836;4.364;2022-08-19T09:49:17;4.28;;;2.00;;
23690;SDS011;43867;50.836;4.364;2022-08-19T09:51:44;2.90;;;1.83;;
23690;SDS011;43867;50.836;4.364;2022-08-19T09:54:14;3.05;;;1.80;;
23690;SDS011;43867;50.836;4.364;2022-08-19T09:56:39;2.42;;;1.20;;
23690;SDS011;43867;50.836;4.364;2022-08-19T09:59:05;2.45;;;1.50;;
23690;SDS011;43867;50.836;4.364;2022-08-19T10:01:31;2.72;;;1.58;;
23690;SDS011;43867;50.836;4.364;2022-08-19T10:03:58;3.78;;;1.80;;
23690;SDS011;43867;50.836;4.364;2022-08-19T10:06:28;2.67;;;1.75;;
23690;SDS011;43867;50.836;4.364;2022-08-19T10:08:58;2.72;;;1.65;;
23690;SDS011;43867;50.836;4.364;2022-08-19T10:11:25;1.98;;;1.55;;
23690;SDS011;43867;50.836;4.364;2022-08-19T10:13:51;2.25;;;1.35;;
23690;SDS011;43867;50.836;4.364;2022-08-19T10:16:19;1.77;;;1.40;;
23690;SDS011;43867;50.836;4.364;2022-08-19T10:18:47;2.45;;;1.58;;
23690;SDS011;43867;50.836;4.364;2022-08-19T10:23:45;3.78;;;1.73;;
23690;SDS011;43867;50.836;4.364;2022-08-19T10:26:14;2.70;;;1.60;;
23690;SDS011;43867;50.836;4.364;2022-08-19T10:28:42;2.22;;;1.75;;
23690;SDS011;43867;50.836;4.364;2022-08-19T10:31:09;1.98;;;1.70;;
23690;SDS011;43867;50.836;4.364;2022-08-19T10:33:37;3.47;;;1.92;;
23690;SDS011;43867;50.836;4.364;2022-08-19T10:36:06;2.78;;;1.60;;
23690;SDS011;43867;50.836;4.364;2022-08-19T10:38:40;2.38;;;2.15;;
23690;SDS011;43867;50.836;4.364;2022-08-19T10:41:17;3.80;;;2.35;;
23690;SDS011;43867;50.836;4.364;2022-08-19T10:43:50;3.05;;;2.03;;
23690;SDS011;43867;50.836;4.364;2022-08-19T10:48:45;3.35;;;2.22;;
23690;SDS011;43867;50.836;4.364;2022-08-19T10:51:11;4.20;;;2.38;;
23690;SDS011;43867;50.836;4.364;2022-08-19T10:53:56;3.58;;;2.60;;
23690;SDS011;43867;50.836;4.364;2022-08-19T10:56:23;2.88;;;1.88;;
23690;SDS011;43867;50.836;4.364;2022-08-19T10:59:08;3.88;;;2.08;;
23690;SDS011;43867;50.836;4.364;2022-08-19T11:01:34;5.72;;;2.55;;
23690;SDS011;43867;50.836;4.364;2022-08-19T11:04:00;3.70;;;2.60;;
23690;SDS011;43867;50.836;4.364;2022-08-19T11:06:28;5.47;;;2.35;;
23690;SDS011;43867;50.836;4.364;2022-08-19T11:08:55;3.97;;;2.58;;
23690;SDS011;43867;50.836;4.364;2022-08-19T11:11:21;3.45;;;2.05;;
23690;SDS011;43867;50.836;4.364;2022-08-19T11:13:48;2.75;;;1.98;;
23690;SDS011;43867;50.836;4.364;2022-08-19T11:16:16;4.13;;;2.13;;
23690;SDS011;43867;50.836;4.364;2022-08-19T11:18:45;3.75;;;2.35;;
23690;SDS011;43867;50.836;4.364;2022-08-19T11:21:21;2.90;;;2.30;;
23690;SDS011;43867;50.836;4.364;2022-08-19T11:23:50;4.07;;;2.60;;
23690;SDS011;43867;50.836;4.364;2022-08-19T11:26:19;4.53;;;2.65;;
23690;SDS011;43867;50.836;4.364;2022-08-19T11:28:46;3.90;;;2.53;;
23690;SDS011;43867;50.836;4.364;2022-08-19T11:31:13;3.70;;;2.50;;
23690;SDS011;43867;50.836;4.364;2022-08-19T11:33:40;5.18;;;2.60;;
23690;SDS011;43867;50.836;4.364;2022-08-19T11:36:07;6.43;;;3.03;;
23690;SDS011;43867;50.836;4.364;2022-08-19T11:38:33;3.20;;;2.53;;
23690;SDS011;43867;50.836;4.364;2022-08-19T11:41:01;4.85;;;3.13;;
23690;SDS011;43867;50.836;4.364;2022-08-19T11:43:29;5.28;;;3.05;;
23690;SDS011;43867;50.836;4.364;2022-08-19T11:45:56;4.97;;;2.58;;
23690;SDS011;43867;50.836;4.364;2022-08-19T11:48:23;3.65;;;2.50;;
23690;SDS011;43867;50.836;4.364;2022-08-19T11:50:50;3.17;;;2.55;;
23690;SDS011;43867;50.836;4.364;2022-08-19T11:53:18;4.07;;;2.72;;
23690;SDS011;43867;50.836;4.364;2022-08-19T11:55:45;4.32;;;2.90;;
23690;SDS011;43867;50.836;4.364;2022-08-19T11:58:14;4.18;;;2.35;;
23690;SDS011;43867;50.836;4.364;2022-08-19T12:00:43;3.65;;;2.17;;
23690;SDS011;43867;50.836;4.364;2022-08-19T12:03:10;4.55;;;2.55;;
23690;SDS011;43867;50.836;4.364;2022-08-19T12:05:37;2.97;;;2.30;;
23690;SDS011;43867;50.836;4.364;2022-08-19T12:08:05;4.25;;;2.10;;
23690;SDS011;43867;50.836;4.364;2022-08-19T12:10:31;2.90;;;2.20;;
23690;SDS011;43867;50.836;4.364;2022-08-19T12:12:57;2.25;;;1.70;;
23690;SDS011;43867;50.836;4.364;2022-08-19T12:15:23;4.43;;;1.98;;
23690;SDS011;43867;50.836;4.364;2022-08-19T12:17:49;2.42;;;1.75;;
23690;SDS011;43867;50.836;4.364;2022-08-19T12:20:15;2.00;;;1.50;;
23690;SDS011;43867;50.836;4.364;2022-08-19T12:22:42;3.03;;;2.08;;
23690;SDS011;43867;50.836;4.364;2022-08-19T12:25:11;1.92;;;1.50;;
23690;SDS011;43867;50.836;4.364;2022-08-19T12:27:37;3.25;;;1.92;;
23690;SDS011;43867;50.836;4.364;2022-08-19T12:30:04;3.33;;;1.70;;
23690;SDS011;43867;50.836;4.364;2022-08-19T12:32:31;2.05;;;1.38;;
23690;SDS011;43867;50.836;4.364;2022-08-19T12:34:57;1.20;;;1.10;;
23690;SDS011;43867;50.836;4.364;2022-08-19T12:37:23;1.95;;;1.50;;
23690;SDS011;43867;50.836;4.364;2022-08-19T12:39:48;1.90;;;1.38;;
23690;SDS011;43867;50.836;4.364;2022-08-19T12:42:14;4.20;;;1.35;;
23690;SDS011;43867;50.836;4.364;2022-08-19T12:44:41;1.35;;;1.20;;
23690;SDS011;43867;50.836;4.364;2022-08-19T12:47:08;1.98;;;1.40;;
23690;SDS011;43867;50.836;4.364;2022-08-19T12:49:36;1.67;;;1.38;;
23690;SDS011;43867;50.836;4.364;2022-08-19T12:52:03;1.38;;;0.98;;
23690;SDS011;43867;50.836;4.364;2022-08-19T12:54:29;1.98;;;1.30;;
23690;SDS011;43867;50.836;4.364;2022-08-19T12:56:56;1.63;;;1.20;;
23690;SDS011;43867;50.836;4.364;2022-08-19T12:59:23;2.50;;;1.30;;
23690;SDS011;43867;50.836;4.364;2022-08-19T13:01:49;1.45;;;1.35;;
23690;SDS011;43867;50.836;4.364;2022-08-19T13:04:14;1.25;;;1.13;;
23690;SDS011;43867;50.836;4.364;2022-08-19T13:06:41;1.10;;;1.00;;
23690;SDS011;43867;50.836;4.364;2022-08-19T13:09:07;1.73;;;1.30;;
23690;SDS011;43867;50.836;4.364;2022-08-19T13:11:33;1.25;;;1.00;;
23690;SDS011;43867;50.836;4.364;2022-08-19T13:14:00;1.98;;;1.50;;
23690;SDS011;43867;50.836;4.364;2022-08-19T13:16:26;1.65;;;1.15;;
23690;SDS011;43867;50.836;4.364;2022-08-19T13:18:53;1.40;;;1.00;;
23690;SDS011;43867;50.836;4.364;2022-08-19T13:21:21;1.48;;;1.10;;
23690;SDS011;43867;50.836;4.364;2022-08-19T13:23:49;1.25;;;0.98;;
23690;SDS011;43867;50.836;4.364;2022-08-19T13:26:16;1.23;;;1.13;;
23690;SDS011;43867;50.836;4.364;2022-08-19T13:28:42;1.27;;;1.00;;
23690;SDS011;43867;50.836;4.364;2022-08-19T13:31:29;1.42;;;1.23;;
23690;SDS011;43867;50.836;4.364;2022-08-19T13:34:15;1.13;;;1.00;;
23690;SDS011;43867;50.836;4.364;2022-08-19T13:36:43;0.80;;;0.80;;
23690;SDS011;43867;50.836;4.364;2022-08-19T13:39:09;0.90;;;0.80;;
23690;SDS011;43867;50.836;4.364;2022-08-19T13:41:37;1.00;;;0.90;;
23690;SDS011;43867;50.836;4.364;2022-08-19T13:44:07;0.95;;;0.85;;
23690;SDS011;43867;50.836;4.364;2022-08-19T13:46:34;0.90;;;0.80;;
23690;SDS011;43867;50.836;4.364;2022-08-19T13:49:00;1.42;;;1.08;;
23690;SDS011;43867;50.836;4.364;2022-08-19T13:51:26;1.20;;;1.00;;
23690;SDS011;43867;50.836;4.364;2022-08-19T13:53:52;1.35;;;1.20;;
23690;SDS011;43867;50.836;4.364;2022-08-19T13:56:18;1.27;;;1.08;;
23690;SDS011;43867;50.836;4.364;2022-08-19T13:58:44;1.88;;;1.00;;
23690;SDS011;43867;50.836;4.364;2022-08-19T14:01:11;0.93;;;0.90;;
23690;SDS011;43867;50.836;4.364;2022-08-19T14:03:37;1.27;;;0.98;;
23690;SDS011;43867;50.836;4.364;2022-08-19T14:06:03;1.75;;;1.27;;
23690;SDS011;43867;50.836;4.364;2022-08-19T14:08:29;1.13;;;0.95;;
23690;SDS011;43867;50.836;4.364;2022-08-19T14:10:57;0.88;;;0.82;;
23690;SDS011;43867;50.836;4.364;2022-08-19T14:13:24;2.28;;;1.38;;
23690;SDS011;43867;50.836;4.364;2022-08-19T14:15:50;1.60;;;1.20;;
23690;SDS011;43867;50.836;4.364;2022-08-19T14:18:16;1.30;;;1.17;;
23690;SDS011;43867;50.836;4.364;2022-08-19T14:20:43;2.10;;;1.20;;
23690;SDS011;43867;50.836;4.364;2022-08-19T14:23:10;1.83;;;1.10;;
23690;SDS011;43867;50.836;4.364;2022-08-19T14:25:37;1.58;;;1.20;;
23690;SDS011;43867;50.836;4.364;2022-08-19T14:28:03;1.10;;;1.00;;
23690;SDS011;43867;50.836;4.364;2022-08-19T14:30:30;1.90;;;1.00;;
23690;SDS011;43867;50.836;4.364;2022-08-19T14:32:59;1.85;;;1.45;;
23690;SDS011;43867;50.836;4.364;2022-08-19T14:35:27;2.90;;;1.08;;
23690;SDS011;43867;50.836;4.364;2022-08-19T14:37:54;1.00;;;0.80;;
23690;SDS011;43867;50.836;4.364;2022-08-19T14:40:24;0.70;;;0.70;;
23690;SDS011;43867;50.836;4.364;2022-08-19T14:42:56;0.60;;;0.52;;
23690;SDS011;43867;50.836;4.364;2022-08-19T14:45:27;0.85;;;0.70;;
23690;SDS011;43867;50.836;4.364;2022-08-19T14:47:53;0.73;;;0.73;;
23690;SDS011;43867;50.836;4.364;2022-08-19T14:50:19;0.70;;;0.70;;
23690;SDS011;43867;50.836;4.364;2022-08-19T14:52:45;0.90;;;0.65;;
23690;SDS011;43867;50.836;4.364;2022-08-19T14:55:12;0.70;;;0.70;;
23690;SDS011;43867;50.836;4.364;2022-08-19T14:57:40;0.70;;;0.70;;
23690;SDS011;43867;50.836;4.364;2022-08-19T15:00:06;0.70;;;0.70;;
23690;SDS011;43867;50.836;4.364;2022-08-19T15:02:37;1.10;;;0.75;;
23690;SDS011;43867;50.836;4.364;2022-08-19T15:05:04;1.17;;;0.93;;
23690;SDS011;43867;50.836;4.364;2022-08-19T15:07:30;1.13;;;0.88;;